Time;durP1;ratioP1;P1;durP2;ratioP2;P2;SDS_P1;SDS_P2;PMS_P1;PMS_P2;Temp;Humidity;BMP_temperature;BMP_pressure;BME280_temperature;BME280_humidity;BME280_pressure;Samples;Min_cycle;Max_cycle;Signal;HPM_P1;HPM_P2
2024/01/27 00:02:23;;;;;;;17.73;5.90;;;;;;;;;;5061492;28;20588;-77
2024/01/27 00:04:49;;;;;;;16.00;4.90;;;;;;;;;;5062851;28;20464;-76
2024/01/27 00:07:16;;;;;;;12.37;4.90;;;;;;;;;;5056791;28;20477;-77
2024/01/27 00:09:44;;;;;;;10.97;4.30;;;;;;;;;;5055851;28;20484;-77
2024/01/27 00:12:10;;;;;;;20.27;5.40;;;;;;;;;;5062398;28;20453;-77
2024/01/27 00:14:38;;;;;;;10.83;5.33;;;;;;;;;;5053273;28;20483;-77
2024/01/27 00:17:05;;;;;;;14.17;4.47;;;;;;;;;;5060583;28;20547;-77
2024/01/27 00:19:31;;;;;;;8.40;4.13;;;;;;;;;;5057635;28;20492;-77
2024/01/27 00:21:58;;;;;;;16.20;4.87;;;;;;;;;;5062265;28;20476;-77
2024/01/27 00:24:25;;;;;;;14.87;5.03;;;;;;;;;;5066507;28;20449;-77
2024/01/27 00:26:52;;;;;;;26.03;5.40;;;;;;;;;;5059853;28;20492;-76
2024/01/27 00:29:19;;;;;;;19.90;4.50;;;;;;;;;;5069420;28;20461;-78
2024/01/27 00:31:45;;;;;;;19.63;4.47;;;;;;;;;;5064248;28;20423;-76
2024/01/27 00:34:12;;;;;;;15.30;4.80;;;;;;;;;;5072193;28;20650;-76
2024/01/27 00:36:38;;;;;;;21.43;4.57;;;;;;;;;;5076807;28;20501;-76
2024/01/27 00:39:05;;;;;;;15.80;5.37;;;;;;;;;;5067503;28;20447;-77
2024/01/27 00:41:32;;;;;;;12.90;4.17;;;;;;;;;;5059199;28;20482;-76
2024/01/27 00:44:00;;;;;;;16.57;5.10;;;;;;;;;;5057933;28;20481;-76
2024/01/27 00:46:26;;;;;;;12.50;5.00;;;;;;;;;;5060234;28;20514;-76
2024/01/27 00:48:52;;;;;;;18.87;5.27;;;;;;;;;;5061639;28;20511;-77
2024/01/27 00:51:19;;;;;;;15.60;5.40;;;;;;;;;;5058645;28;20972;-76
2024/01/27 00:53:45;;;;;;;19.07;4.87;;;;;;;;;;5065049;28;20503;-76
2024/01/27 00:56:11;;;;;;;13.73;4.30;;;;;;;;;;5060030;28;20471;-76
2024/01/27 00:58:38;;;;;;;21.83;5.20;;;;;;;;;;5059267;28;20492;-77
2024/01/27 01:01:06;;;;;;;19.83;6.10;;;;;;;;;;5066111;28;20484;-75
2024/01/27 01:03:32;;;;;;;16.60;5.17;;;;;;;;;;5064791;28;20524;-76
2024/01/27 01:05:59;;;;;;;14.17;3.97;;;;;;;;;;5063746;28;21032;-77
2024/01/27 01:08:25;;;;;;;13.13;4.87;;;;;;;;;;5057001;28;20463;-76
2024/01/27 01:10:51;;;;;;;12.87;4.47;;;;;;;;;;5056562;28;20460;-76
2024/01/27 01:13:18;;;;;;;21.50;5.10;;;;;;;;;;5057365;28;20481;-76
2024/01/27 01:15:44;;;;;;;13.73;4.57;;;;;;;;;;5065303;28;20444;-76
2024/01/27 01:18:12;;;;;;;27.00;4.20;;;;;;;;;;5052577;28;20466;-76
2024/01/27 01:20:38;;;;;;;11.63;4.30;;;;;;;;;;5060705;28;20449;-76
2024/01/27 01:23:05;;;;;;;15.93;4.57;;;;;;;;;;5046790;28;20528;-76
2024/01/27 01:25:31;;;;;;;22.90;6.10;;;;;;;;;;5057949;28;20456;-76
2024/01/27 01:27:58;;;;;;;15.00;4.23;;;;;;;;;;5045621;28;20466;-76
2024/01/27 01:30:24;;;;;;;17.33;4.87;;;;;;;;;;5058457;28;20566;-76
2024/01/27 01:32:51;;;;;;;18.03;5.37;;;;;;;;;;5061695;28;20905;-76
2024/01/27 01:35:19;;;;;;;15.37;5.10;;;;;;;;;;5059378;28;20468;-75
2024/01/27 01:37:48;;;;;;;21.60;5.23;;;;;;;;;;5058104;28;20487;-76
2024/01/27 01:40:15;;;;;;;14.10;6.00;;;;;;;;;;5057132;28;20893;-76
2024/01/27 01:42:41;;;;;;;25.27;5.37;;;;;;;;;;5055555;28;21176;-76
2024/01/27 01:45:10;;;;;;;15.43;5.20;;;;;;;;;;5059946;28;20943;-76
2024/01/27 01:47:36;;;;;;;19.23;4.60;;;;;;;;;;5052444;28;20524;-77
2024/01/27 01:50:03;;;;;;;10.27;4.77;;;;;;;;;;5064631;28;20524;-76
2024/01/27 01:52:31;;;;;;;10.33;4.30;;;;;;;;;;5063595;28;20460;-76
2024/01/27 01:54:57;;;;;;;26.90;4.50;;;;;;;;;;5057219;28;20545;-77
2024/01/27 01:57:23;;;;;;;16.13;4.40;;;;;;;;;;5060390;28;21228;-76
2024/01/27 01:59:50;;;;;;;14.97;5.03;;;;;;;;;;5059774;28;20496;-76
2024/01/27 02:02:16;;;;;;;20.53;4.87;;;;;;;;;;5048492;28;20534;-76
2024/01/27 02:04:43;;;;;;;11.87;3.90;;;;;;;;;;5058032;28;20520;-76
2024/01/27 02:07:09;;;;;;;16.40;5.03;;;;;;;;;;5059291;28;20445;-76
2024/01/27 02:09:37;;;;;;;20.60;5.00;;;;;;;;;;5059988;28;20484;-76
2024/01/27 02:12:03;;;;;;;20.00;5.30;;;;;;;;;;5050955;28;20491;-76
2024/01/27 02:14:30;;;;;;;15.73;4.57;;;;;;;;;;5062047;28;20452;-76
2024/01/27 02:16:55;;;;;;;11.90;4.17;;;;;;;;;;5053132;28;20459;-76
2024/01/27 02:19:22;;;;;;;23.93;4.70;;;;;;;;;;5055196;28;20547;-76
2024/01/27 02:21:48;;;;;;;14.20;4.83;;;;;;;;;;5055091;28;20235;-76
2024/01/27 02:24:16;;;;;;;18.83;5.23;;;;;;;;;;5051097;28;20529;-76
2024/01/27 02:26:42;;;;;;;18.30;4.80;;;;;;;;;;5063482;28;20456;-76
2024/01/27 02:29:09;;;;;;;16.03;4.87;;;;;;;;;;5057846;28;20551;-76
2024/01/27 02:31:35;;;;;;;12.07;4.63;;;;;;;;;;5047450;28;20478;-76
2024/01/27 02:34:02;;;;;;;12.40;6.00;;;;;;;;;;5052673;28;20476;-76
2024/01/27 02:36:28;;;;;;;20.80;5.47;;;;;;;;;;5056250;28;20684;-76
2024/01/27 02:38:54;;;;;;;14.43;4.77;;;;;;;;;;5061472;28;20520;-76
2024/01/27 02:41:22;;;;;;;12.40;5.10;;;;;;;;;;5049121;28;20484;-76
2024/01/27 02:43:48;;;;;;;16.87;6.23;;;;;;;;;;5062484;28;20565;-76
2024/01/27 02:46:15;;;;;;;10.60;4.87;;;;;;;;;;5060009;28;20481;-76
2024/01/27 02:48:42;;;;;;;18.83;5.30;;;;;;;;;;5059893;28;20471;-76
2024/01/27 02:51:08;;;;;;;16.70;5.27;;;;;;;;;;5068588;28;20441;-76
2024/01/27 02:53:35;;;;;;;14.20;5.73;;;;;;;;;;5062648;28;20476;-76
2024/01/27 02:56:01;;;;;;;21.23;6.37;;;;;;;;;;5064328;28;20451;-76
2024/01/27 02:58:29;;;;;;;18.87;5.83;;;;;;;;;;5060326;28;20571;-74
2024/01/27 03:00:56;;;;;;;16.10;5.90;;;;;;;;;;5058488;28;20468;-76
2024/01/27 03:03:22;;;;;;;16.37;4.90;;;;;;;;;;5062858;28;20520;-76
2024/01/27 03:05:48;;;;;;;11.80;4.37;;;;;;;;;;5065239;28;20535;-76
2024/01/27 03:08:15;;;;;;;14.53;5.23;;;;;;;;;;5061565;28;20897;-76
2024/01/27 03:10:41;;;;;;;13.20;5.30;;;;;;;;;;5054805;28;20522;-76
2024/01/27 03:13:08;;;;;;;20.27;5.50;;;;;;;;;;5058530;28;20455;-76
2024/01/27 03:15:37;;;;;;;10.77;5.90;;;;;;;;;;5065824;28;20468;-75
2024/01/27 03:18:04;;;;;;;14.30;5.50;;;;;;;;;;5068228;28;20455;-75
2024/01/27 03:20:31;;;;;;;17.70;6.70;;;;;;;;;;5060925;28;20943;-76
2024/01/27 03:22:57;;;;;;;14.93;5.70;;;;;;;;;;5049820;28;20461;-76
2024/01/27 03:25:25;;;;;;;19.90;6.67;;;;;;;;;;5062383;28;20454;-75
2024/01/27 03:27:52;;;;;;;16.63;5.87;;;;;;;;;;5061998;28;20492;-76
2024/01/27 03:30:18;;;;;;;13.63;6.73;;;;;;;;;;5063245;28;20457;-76
2024/01/27 03:32:46;;;;;;;18.43;6.00;;;;;;;;;;5069546;28;20476;-76
2024/01/27 03:35:12;;;;;;;12.33;5.60;;;;;;;;;;5062529;28;20514;-76
2024/01/27 03:37:39;;;;;;;19.03;6.20;;;;;;;;;;5058448;28;20456;-76
2024/01/27 03:40:06;;;;;;;14.97;6.00;;;;;;;;;;5056126;28;20508;-76
2024/01/27 03:42:32;;;;;;;14.13;6.80;;;;;;;;;;5072544;28;20570;-76
2024/01/27 03:44:59;;;;;;;16.20;5.83;;;;;;;;;;5059774;28;20576;-76
2024/01/27 03:47:26;;;;;;;11.07;6.47;;;;;;;;;;5063371;28;20453;-76
2024/01/27 03:49:54;;;;;;;16.50;5.83;;;;;;;;;;5063323;28;20510;-76
2024/01/27 03:52:20;;;;;;;17.63;7.77;;;;;;;;;;5065222;28;20516;-76
2024/01/27 03:54:47;;;;;;;29.20;6.87;;;;;;;;;;5062106;28;20491;-76
2024/01/27 03:57:13;;;;;;;12.70;6.40;;;;;;;;;;5059430;28;20451;-76
2024/01/27 03:59:41;;;;;;;19.77;6.17;;;;;;;;;;5059493;28;20559;-76
2024/01/27 04:02:07;;;;;;;20.37;7.10;;;;;;;;;;5059840;28;20812;-76
2024/01/27 04:04:33;;;;;;;12.40;6.90;;;;;;;;;;5059206;28;20616;-76
2024/01/27 04:07:02;;;;;;;23.37;7.50;;;;;;;;;;5053628;28;20982;-76
2024/01/27 04:09:28;;;;;;;13.83;6.53;;;;;;;;;;5067107;28;20457;-76
2024/01/27 04:11:55;;;;;;;14.77;7.37;;;;;;;;;;5060590;28;20472;-76
2024/01/27 04:14:21;;;;;;;20.10;7.93;;;;;;;;;;5055006;28;20474;-76
2024/01/27 04:16:47;;;;;;;17.63;7.77;;;;;;;;;;5051821;28;20599;-76
2024/01/27 04:19:14;;;;;;;20.93;8.27;;;;;;;;;;5062958;28;21238;-76
2024/01/27 04:21:42;;;;;;;15.73;7.00;;;;;;;;;;5058267;28;20464;-76
2024/01/27 04:24:10;;;;;;;15.40;7.37;;;;;;;;;;5066987;28;20679;-76
2024/01/27 04:26:36;;;;;;;17.70;7.70;;;;;;;;;;5062889;28;20524;-76
2024/01/27 04:29:03;;;;;;;16.10;7.70;;;;;;;;;;5059546;28;20492;-76
2024/01/27 04:31:31;;;;;;;16.33;6.90;;;;;;;;;;5054503;28;20471;-76
2024/01/27 04:33:58;;;;;;;17.53;6.50;;;;;;;;;;5062084;28;20496;-76
2024/01/27 04:36:28;;;;;;;17.70;7.40;;;;;;;;;;5064962;28;20432;-76
2024/01/27 04:38:54;;;;;;;16.17;7.83;;;;;;;;;;5061153;28;20464;-76
2024/01/27 04:41:22;;;;;;;14.67;7.80;;;;;;;;;;5055784;28;20552;-75
2024/01/27 04:43:48;;;;;;;21.47;8.00;;;;;;;;;;5067827;28;20519;-76
2024/01/27 04:46:15;;;;;;;17.17;8.30;;;;;;;;;;5061409;28;20512;-77
2024/01/27 04:48:41;;;;;;;19.40;9.00;;;;;;;;;;5063220;28;20527;-77
2024/01/27 04:51:08;;;;;;;17.30;8.63;;;;;;;;;;5064158;28;20479;-76
2024/01/27 04:53:34;;;;;;;18.70;7.53;;;;;;;;;;5054799;28;20448;-76
2024/01/27 04:56:00;;;;;;;21.20;7.93;;;;;;;;;;5059587;28;20487;-76
2024/01/27 04:58:28;;;;;;;16.67;6.40;;;;;;;;;;5060754;28;20497;-77
2024/01/27 05:00:54;;;;;;;18.67;7.90;;;;;;;;;;5057615;28;21024;-76
2024/01/27 05:03:21;;;;;;;16.93;7.20;;;;;;;;;;5059079;28;20484;-77
2024/01/27 05:05:47;;;;;;;26.20;8.23;;;;;;;;;;5058804;28;20537;-77
2024/01/27 05:08:14;;;;;;;24.03;7.50;;;;;;;;;;5059476;28;20528;-77
2024/01/27 05:10:40;;;;;;;15.10;7.67;;;;;;;;;;5061069;28;20540;-77
2024/01/27 05:13:06;;;;;;;19.53;7.77;;;;;;;;;;5056888;28;20448;-77
2024/01/27 05:15:34;;;;;;;18.00;8.00;;;;;;;;;;5055641;28;20529;-77
2024/01/27 05:18:01;;;;;;;15.93;7.57;;;;;;;;;;5061311;28;20457;-77
2024/01/27 05:20:27;;;;;;;15.03;8.20;;;;;;;;;;5057502;28;20484;-76
2024/01/27 05:22:54;;;;;;;23.67;9.37;;;;;;;;;;5058730;28;20482;-77
2024/01/27 05:25:20;;;;;;;22.30;8.20;;;;;;;;;;5050002;28;20580;-76
2024/01/27 05:27:46;;;;;;;14.77;8.47;;;;;;;;;;5053230;28;20520;-77
2024/01/27 05:30:14;;;;;;;15.83;8.60;;;;;;;;;;5061352;28;20522;-77
2024/01/27 05:32:42;;;;;;;22.17;8.13;;;;;;;;;;5060666;28;20459;-76
2024/01/27 05:35:09;;;;;;;24.23;9.00;;;;;;;;;;5056955;28;20475;-77
2024/01/27 05:37:35;;;;;;;24.27;8.33;;;;;;;;;;5062678;28;20456;-76
2024/01/27 05:40:02;;;;;;;18.07;8.30;;;;;;;;;;5064105;28;20473;-76
2024/01/27 05:42:28;;;;;;;17.20;9.40;;;;;;;;;;5060238;28;20557;-76
2024/01/27 05:44:55;;;;;;;16.97;8.50;;;;;;;;;;5048959;28;20535;-77
2024/01/27 05:47:21;;;;;;;21.53;8.67;;;;;;;;;;5053037;28;20534;-76
2024/01/27 05:49:49;;;;;;;12.60;8.40;;;;;;;;;;5058064;28;20476;-76
2024/01/27 05:52:15;;;;;;;21.53;9.60;;;;;;;;;;5060911;28;20520;-77
2024/01/27 05:54:42;;;;;;;16.30;9.50;;;;;;;;;;5061129;28;20548;-76
2024/01/27 05:57:08;;;;;;;22.33;8.17;;;;;;;;;;5055553;28;20499;-76
2024/01/27 05:59:35;;;;;;;28.33;8.97;;;;;;;;;;5072360;28;20516;-76
2024/01/27 06:02:01;;;;;;;22.20;10.17;;;;;;;;;;5058116;28;20491;-76
2024/01/27 06:04:28;;;;;;;16.03;9.43;;;;;;;;;;5053031;28;20528;-77
2024/01/27 06:06:55;;;;;;;17.83;8.73;;;;;;;;;;5054162;28;20445;-76
2024/01/27 06:09:22;;;;;;;20.93;9.73;;;;;;;;;;5055051;28;20521;-76
2024/01/27 06:11:48;;;;;;;17.37;9.10;;;;;;;;;;5061726;28;20518;-77
2024/01/27 06:14:14;;;;;;;14.97;9.50;;;;;;;;;;5056515;28;20437;-76
2024/01/27 06:16:41;;;;;;;18.27;9.70;;;;;;;;;;5043614;28;20496;-76
2024/01/27 06:19:07;;;;;;;24.03;9.33;;;;;;;;;;5058277;28;20477;-76
2024/01/27 06:21:35;;;;;;;20.60;9.50;;;;;;;;;;5055825;28;20452;-77
2024/01/27 06:24:03;;;;;;;20.83;10.20;;;;;;;;;;5058728;28;20451;-77
2024/01/27 06:26:29;;;;;;;19.97;10.03;;;;;;;;;;5060521;28;20536;-77
2024/01/27 06:28:56;;;;;;;21.40;10.50;;;;;;;;;;5050087;28;20453;-76
2024/01/27 06:31:22;;;;;;;24.17;10.40;;;;;;;;;;5056831;28;20872;-76
2024/01/27 06:33:48;;;;;;;19.33;10.20;;;;;;;;;;5055820;28;20452;-76
2024/01/27 06:36:14;;;;;;;27.70;10.73;;;;;;;;;;5062791;28;20445;-77
2024/01/27 06:38:40;;;;;;;22.93;11.67;;;;;;;;;;5060023;28;20464;-77
2024/01/27 06:41:08;;;;;;;19.80;11.70;;;;;;;;;;5068512;28;20233;-76
2024/01/27 06:43:34;;;;;;;21.40;10.90;;;;;;;;;;5060131;28;20537;-77
2024/01/27 06:46:01;;;;;;;21.80;12.03;;;;;;;;;;5059324;28;20535;-75
2024/01/27 06:48:27;;;;;;;28.40;11.70;;;;;;;;;;5068258;28;20888;-76
2024/01/27 06:50:54;;;;;;;22.47;11.70;;;;;;;;;;5065595;28;20480;-76
2024/01/27 06:53:20;;;;;;;18.03;11.77;;;;;;;;;;5063941;28;20468;-76
2024/01/27 06:55:47;;;;;;;36.60;12.60;;;;;;;;;;5052982;28;20453;-75
2024/01/27 06:58:14;;;;;;;23.97;11.23;;;;;;;;;;5057834;28;20453;-75
2024/01/27 07:00:41;;;;;;;21.70;12.07;;;;;;;;;;5056069;28;20500;-75
2024/01/27 07:03:08;;;;;;;19.47;12.03;;;;;;;;;;5071053;28;20545;-75
2024/01/27 07:05:38;;;;;;;17.57;11.90;;;;;;;;;;5061719;28;21114;-75
2024/01/27 07:08:05;;;;;;;30.97;12.30;;;;;;;;;;5067186;28;20501;-77
2024/01/27 07:10:32;;;;;;;21.73;11.80;;;;;;;;;;5056636;28;20465;-76
2024/01/27 07:12:58;;;;;;;23.83;12.60;;;;;;;;;;5056666;28;20489;-75
2024/01/27 07:15:26;;;;;;;30.20;13.40;;;;;;;;;;5056728;28;20497;-75
2024/01/27 07:17:53;;;;;;;16.80;12.03;;;;;;;;;;5050918;28;20453;-76
2024/01/27 07:20:20;;;;;;;24.17;11.60;;;;;;;;;;5062415;28;20955;-75
2024/01/27 07:22:47;;;;;;;24.30;12.03;;;;;;;;;;5059791;28;20467;-76
2024/01/27 07:25:14;;;;;;;21.67;13.23;;;;;;;;;;5053859;28;20561;-75
2024/01/27 07:27:40;;;;;;;27.77;13.43;;;;;;;;;;5062604;28;20488;-76
2024/01/27 07:30:09;;;;;;;26.93;13.27;;;;;;;;;;5065719;28;20499;-75
2024/01/27 07:32:36;;;;;;;31.00;13.73;;;;;;;;;;5066067;28;20452;-75
2024/01/27 07:35:05;;;;;;;26.23;12.57;;;;;;;;;;5065880;28;20488;-75
2024/01/27 07:37:32;;;;;;;27.00;12.57;;;;;;;;;;5063419;28;20455;-75
2024/01/27 07:39:58;;;;;;;18.47;12.00;;;;;;;;;;5065591;28;20483;-76
2024/01/27 07:42:24;;;;;;;17.97;11.07;;;;;;;;;;5063395;28;20507;-75
2024/01/27 07:44:51;;;;;;;17.63;11.90;;;;;;;;;;5065480;28;20512;-75
2024/01/27 07:47:17;;;;;;;20.80;12.93;;;;;;;;;;5066942;28;20480;-75
2024/01/27 07:49:45;;;;;;;28.70;14.03;;;;;;;;;;5069506;28;20492;-76
2024/01/27 07:52:11;;;;;;;28.50;13.43;;;;;;;;;;5061469;28;20532;-75
2024/01/27 07:54:39;;;;;;;21.83;11.80;;;;;;;;;;5068921;28;21000;-75
2024/01/27 07:57:06;;;;;;;25.80;12.60;;;;;;;;;;5060678;28;20474;-75
2024/01/27 07:59:32;;;;;;;15.97;11.27;;;;;;;;;;5064287;28;20448;-76
2024/01/27 08:01:59;;;;;;;24.57;11.70;;;;;;;;;;5065974;28;20470;-76
2024/01/27 08:04:26;;;;;;;18.57;12.50;;;;;;;;;;5064604;28;20441;-75
2024/01/27 08:06:54;;;;;;;19.03;11.70;;;;;;;;;;5063722;28;20992;-76
2024/01/27 08:09:20;;;;;;;22.27;12.33;;;;;;;;;;5062178;28;20919;-75
2024/01/27 08:11:51;;;;;;;18.07;13.37;;;;;;;;;;5059316;28;20457;-76
2024/01/27 08:14:17;;;;;;;23.27;12.60;;;;;;;;;;5066150;28;20878;-76
2024/01/27 08:16:44;;;;;;;19.47;13.30;;;;;;;;;;5070267;28;20515;-75
2024/01/27 08:19:10;;;;;;;25.43;13.93;;;;;;;;;;5064043;28;20541;-76
2024/01/27 08:21:37;;;;;;;21.60;13.40;;;;;;;;;;5067034;28;20894;-76
2024/01/27 08:24:05;;;;;;;22.13;12.70;;;;;;;;;;5063220;28;20766;-78
2024/01/27 08:26:31;;;;;;;26.60;14.20;;;;;;;;;;5066337;28;20483;-78
2024/01/27 08:28:58;;;;;;;19.63;11.40;;;;;;;;;;5065553;28;20484;-79
2024/01/27 08:31:25;;;;;;;20.27;12.47;;;;;;;;;;5071375;28;20478;-77
2024/01/27 08:33:52;;;;;;;20.37;11.93;;;;;;;;;;5061855;28;20457;-77
2024/01/27 08:36:18;;;;;;;17.73;12.10;;;;;;;;;;5066266;28;20459;-77
2024/01/27 08:38:45;;;;;;;18.80;12.90;;;;;;;;;;5062086;28;20453;-77
2024/01/27 08:41:13;;;;;;;17.77;10.90;;;;;;;;;;5060534;28;20463;-76
2024/01/27 08:43:39;;;;;;;16.07;10.47;;;;;;;;;;5057514;28;20492;-77
2024/01/27 08:46:07;;;;;;;14.50;11.40;;;;;;;;;;5058279;28;21054;-76
2024/01/27 08:48:33;;;;;;;15.20;12.13;;;;;;;;;;5054911;28;20459;-76
2024/01/27 08:51:00;;;;;;;17.83;12.60;;;;;;;;;;5059269;28;20491;-77
2024/01/27 08:53:26;;;;;;;19.17;11.90;;;;;;;;;;5055161;28;20468;-77
2024/01/27 08:55:53;;;;;;;15.00;12.50;;;;;;;;;;5059583;28;20469;-76
2024/01/27 08:58:21;;;;;;;21.53;13.17;;;;;;;;;;5070135;28;20492;-77
2024/01/27 09:00:47;;;;;;;13.63;11.37;;;;;;;;;;5062226;28;20521;-76
2024/01/27 09:03:14;;;;;;;16.90;12.13;;;;;;;;;;5060534;28;20476;-77
2024/01/27 09:05:43;;;;;;;16.77;12.17;;;;;;;;;;5061162;28;20961;-77
2024/01/27 09:08:10;;;;;;;14.53;11.70;;;;;;;;;;5067476;28;20510;-77
2024/01/27 09:10:36;;;;;;;19.70;13.63;;;;;;;;;;5058666;28;20868;-77
2024/01/27 09:13:02;;;;;;;17.50;13.07;;;;;;;;;;5066977;28;20527;-77
2024/01/27 09:15:31;;;;;;;20.23;12.17;;;;;;;;;;5046589;28;20450;-78
2024/01/27 09:17:57;;;;;;;18.30;11.77;;;;;;;;;;5065831;28;21290;-77
2024/01/27 09:20:23;;;;;;;16.73;11.77;;;;;;;;;;5053056;28;20486;-78
2024/01/27 09:22:50;;;;;;;21.90;11.20;;;;;;;;;;5060398;28;20519;-78
2024/01/27 09:25:17;;;;;;;18.70;12.87;;;;;;;;;;5056354;28;20492;-78
2024/01/27 09:27:43;;;;;;;18.50;12.87;;;;;;;;;;5060004;28;20483;-79
2024/01/27 09:30:10;;;;;;;19.87;13.27;;;;;;;;;;5069898;28;20464;-77
2024/01/27 09:32:38;;;;;;;13.33;11.43;;;;;;;;;;5062080;28;20449;-77
2024/01/27 09:35:04;;;;;;;18.03;11.80;;;;;;;;;;5061056;28;20911;-77
2024/01/27 09:37:31;;;;;;;15.07;11.93;;;;;;;;;;5058687;28;20441;-77
2024/01/27 09:40:00;;;;;;;16.07;12.67;;;;;;;;;;5059125;28;20520;-77
2024/01/27 09:42:27;;;;;;;15.23;11.80;;;;;;;;;;5060903;28;20757;-77
2024/01/27 09:44:55;;;;;;;15.70;12.27;;;;;;;;;;5058690;28;20508;-77
2024/01/27 09:47:21;;;;;;;15.77;11.40;;;;;;;;;;5063906;28;20471;-77
2024/01/27 09:49:50;;;;;;;16.67;14.13;;;;;;;;;;5061025;28;20547;-77
2024/01/27 09:52:16;;;;;;;17.37;15.10;;;;;;;;;;5069581;28;20452;-77
2024/01/27 09:54:43;;;;;;;20.03;14.93;;;;;;;;;;5067950;28;20486;-77
2024/01/27 09:57:09;;;;;;;16.27;14.67;;;;;;;;;;5069998;28;20905;-77
2024/01/27 09:59:37;;;;;;;21.30;16.30;;;;;;;;;;5061446;28;20528;-77
2024/01/27 10:02:04;;;;;;;18.87;17.07;;;;;;;;;;5057978;28;20548;-77
2024/01/27 10:04:31;;;;;;;21.27;15.30;;;;;;;;;;5052428;28;20445;-77
2024/01/27 10:06:59;;;;;;;15.00;13.23;;;;;;;;;;5060652;28;20537;-78
2024/01/27 10:09:26;;;;;;;21.80;13.40;;;;;;;;;;5058199;28;20839;-77
2024/01/27 10:11:53;;;;;;;19.60;14.93;;;;;;;;;;5056852;28;20493;-77
2024/01/27 10:14:20;;;;;;;20.97;14.70;;;;;;;;;;5061358;28;20535;-78
2024/01/27 10:16:47;;;;;;;16.67;14.90;;;;;;;;;;5058549;28;20454;-78
2024/01/27 10:19:15;;;;;;;16.77;15.00;;;;;;;;;;5052641;28;20771;-78
2024/01/27 10:21:42;;;;;;;16.07;14.73;;;;;;;;;;5060168;28;20483;-76
2024/01/27 10:24:10;;;;;;;16.97;14.93;;;;;;;;;;5070680;28;20472;-78
2024/01/27 10:26:36;;;;;;;16.73;15.13;;;;;;;;;;5072830;28;20541;-81
2024/01/27 10:29:03;;;;;;;17.60;15.83;;;;;;;;;;5065944;28;20449;-80
2024/01/27 10:31:29;;;;;;;18.17;15.60;;;;;;;;;;5061783;28;20467;-77
2024/01/27 10:33:57;;;;;;;19.00;17.00;;;;;;;;;;5058935;28;20476;-79
2024/01/27 10:36:23;;;;;;;17.97;16.13;;;;;;;;;;5064896;28;20855;-86
2024/01/27 10:38:50;;;;;;;19.77;16.97;;;;;;;;;;5057878;28;20489;-86
2024/01/27 10:41:22;;;;;;;16.83;15.30;;;;;;;;;;5058583;28;20494;-86
2024/01/27 10:43:50;;;;;;;17.10;15.30;;;;;;;;;;5057694;28;20510;-87
2024/01/27 10:46:19;;;;;;;15.80;10.70;;;;;;;;;;5054997;28;20482;-80
2024/01/27 10:48:48;;;;;;;15.80;14.17;;;;;;;;;;5053321;28;21014;-80
2024/01/27 10:51:17;;;;;;;17.20;15.17;;;;;;;;;;5065115;28;21031;-78
2024/01/27 10:53:45;;;;;;;17.37;15.53;;;;;;;;;;5057180;28;20473;-77
2024/01/27 10:56:11;;;;;;;17.17;12.27;;;;;;;;;;5058442;28;20457;-78
2024/01/27 10:58:41;;;;;;;12.50;9.83;;;;;;;;;;5061024;28;20479;-77
2024/01/27 11:01:09;;;;;;;22.53;14.73;;;;;;;;;;5055868;28;20457;-78
2024/01/27 11:03:37;;;;;;;11.30;9.50;;;;;;;;;;5057222;28;20448;-77
2024/01/27 11:06:05;;;;;;;15.13;10.07;;;;;;;;;;5055259;28;20556;-77
2024/01/27 11:08:31;;;;;;;12.67;9.40;;;;;;;;;;5060445;28;20542;-78
2024/01/27 11:10:59;;;;;;;17.10;8.70;;;;;;;;;;5063261;28;20472;-79
2024/01/27 11:13:26;;;;;;;16.10;14.60;;;;;;;;;;5054572;28;21081;-78
2024/01/27 11:15:54;;;;;;;12.80;9.20;;;;;;;;;;5062583;28;20449;-78
2024/01/27 11:18:21;;;;;;;15.77;14.30;;;;;;;;;;5070163;28;20480;-79
2024/01/27 11:20:47;;;;;;;18.77;11.20;;;;;;;;;;5064322;28;20464;-78
2024/01/27 11:23:14;;;;;;;19.07;10.13;;;;;;;;;;5064302;28;20498;-78
2024/01/27 11:25:41;;;;;;;13.07;10.73;;;;;;;;;;5056139;28;20598;-79
2024/01/27 11:28:15;;;;;;;15.37;9.33;;;;;;;;;;5061598;28;20486;-81
2024/01/27 11:30:45;;;;;;;11.90;10.13;;;;;;;;;;5054906;28;20445;-81
2024/01/27 11:33:13;;;;;;;18.20;10.57;;;;;;;;;;5060924;28;20496;-82
2024/01/27 11:35:40;;;;;;;15.73;9.60;;;;;;;;;;5065553;28;20499;-81
2024/01/27 11:38:06;;;;;;;12.73;10.20;;;;;;;;;;5064005;28;20475;-80
2024/01/27 11:40:33;;;;;;;14.83;8.70;;;;;;;;;;5061658;28;20481;-83
2024/01/27 11:43:00;;;;;;;16.33;9.90;;;;;;;;;;5060157;28;20565;-82
2024/01/27 11:45:27;;;;;;;15.43;8.53;;;;;;;;;;5064796;28;20453;-82
2024/01/27 11:47:55;;;;;;;17.30;9.10;;;;;;;;;;5068273;28;20457;-82
2024/01/27 11:50:23;;;;;;;13.67;9.77;;;;;;;;;;5064772;28;20468;-80
2024/01/27 11:52:50;;;;;;;10.63;8.53;;;;;;;;;;5073750;28;20540;-80
2024/01/27 11:55:18;;;;;;;12.07;8.73;;;;;;;;;;5068281;28;20468;-82
2024/01/27 11:57:45;;;;;;;20.83;11.10;;;;;;;;;;5054246;28;20452;-81
2024/01/27 12:00:11;;;;;;;18.37;8.30;;;;;;;;;;5064624;28;20496;-82
2024/01/27 12:02:38;;;;;;;11.73;8.30;;;;;;;;;;5061582;28;20468;-81
2024/01/27 12:05:05;;;;;;;13.57;8.07;;;;;;;;;;5064178;28;20461;-81
2024/01/27 12:07:33;;;;;;;14.30;8.30;;;;;;;;;;5061253;28;20480;-80
2024/01/27 12:09:59;;;;;;;9.80;8.00;;;;;;;;;;5067701;28;20525;-81
2024/01/27 12:12:26;;;;;;;11.07;7.60;;;;;;;;;;5059103;28;20468;-81
2024/01/27 12:14:53;;;;;;;12.90;8.30;;;;;;;;;;5065103;28;20936;-80
2024/01/27 12:17:20;;;;;;;12.53;8.40;;;;;;;;;;5059522;28;20525;-81
2024/01/27 12:19:47;;;;;;;17.13;8.60;;;;;;;;;;5060081;28;20820;-78
2024/01/27 12:22:21;;;;;;;17.43;7.40;;;;;;;;;;5058015;28;20454;-81
2024/01/27 12:24:49;;;;;;;17.53;8.50;;;;;;;;;;5055592;28;20581;-81
2024/01/27 12:27:17;;;;;;;11.50;8.53;;;;;;;;;;5055889;28;20516;-82
2024/01/27 12:29:43;;;;;;;12.37;6.93;;;;;;;;;;5057484;28;20456;-81
2024/01/27 12:32:09;;;;;;;10.87;7.80;;;;;;;;;;5061218;28;20891;-80
2024/01/27 12:34:40;;;;;;;12.80;7.43;;;;;;;;;;5067712;28;20491;-80
2024/01/27 12:37:08;;;;;;;10.70;7.13;;;;;;;;;;5061652;28;20453;-81
2024/01/27 12:39:34;;;;;;;9.37;6.90;;;;;;;;;;5061666;28;20965;-81
2024/01/27 12:42:02;;;;;;;16.73;8.30;;;;;;;;;;5063020;28;20523;-81
2024/01/27 12:44:28;;;;;;;15.17;7.10;;;;;;;;;;5056272;28;21022;-82
2024/01/27 12:46:55;;;;;;;11.53;6.90;;;;;;;;;;5062187;28;20516;-78
2024/01/27 12:49:21;;;;;;;16.17;7.77;;;;;;;;;;5062916;28;20449;-82
2024/01/27 12:51:48;;;;;;;13.97;6.77;;;;;;;;;;5061086;28;20476;-79
2024/01/27 12:54:16;;;;;;;14.37;6.93;;;;;;;;;;5067155;28;20519;-80
2024/01/27 12:56:42;;;;;;;18.20;7.60;;;;;;;;;;5063758;28;20976;-79
2024/01/27 12:59:10;;;;;;;16.30;8.30;;;;;;;;;;5063258;28;20456;-80
2024/01/27 13:01:37;;;;;;;13.20;7.70;;;;;;;;;;5064042;28;20511;-80
2024/01/27 13:04:03;;;;;;;13.10;9.03;;;;;;;;;;5064031;28;20509;-80
2024/01/27 13:06:29;;;;;;;8.00;7.23;;;;;;;;;;5060078;28;20512;-79
2024/01/27 13:08:56;;;;;;;14.60;8.13;;;;;;;;;;5067007;28;20486;-81
2024/01/27 13:11:22;;;;;;;11.30;6.40;;;;;;;;;;5060462;28;20456;-80
2024/01/27 13:13:49;;;;;;;13.53;7.77;;;;;;;;;;5065287;28;20527;-80
2024/01/27 13:16:17;;;;;;;13.67;7.17;;;;;;;;;;5062816;28;20520;-80
2024/01/27 13:18:44;;;;;;;11.60;7.00;;;;;;;;;;5055494;28;20453;-80
2024/01/27 13:21:10;;;;;;;12.17;7.80;;;;;;;;;;5058813;28;20465;-79
2024/01/27 13:23:37;;;;;;;9.40;7.40;;;;;;;;;;5065413;28;20936;-79
2024/01/27 13:26:04;;;;;;;13.30;6.80;;;;;;;;;;5070964;28;20490;-80
2024/01/27 13:28:30;;;;;;;9.50;6.77;;;;;;;;;;5061697;28;20497;-81
2024/01/27 13:30:57;;;;;;;15.27;7.87;;;;;;;;;;5067760;28;20972;-81
2024/01/27 13:33:25;;;;;;;12.50;8.30;;;;;;;;;;5066333;28;20460;-81
2024/01/27 13:35:51;;;;;;;14.07;7.97;;;;;;;;;;5066770;28;20480;-80
2024/01/27 13:38:23;;;;;;;15.83;7.30;;;;;;;;;;5063143;28;20447;-81
2024/01/27 13:40:49;;;;;;;15.73;8.33;;;;;;;;;;5064557;28;20521;-82
2024/01/27 13:43:16;;;;;;;13.97;7.60;;;;;;;;;;5054871;28;20539;-79
2024/01/27 13:45:42;;;;;;;14.27;7.10;;;;;;;;;;5056448;28;20523;-80
2024/01/27 13:48:09;;;;;;;10.53;7.30;;;;;;;;;;5060665;28;20496;-79
2024/01/27 13:50:37;;;;;;;19.90;7.33;;;;;;;;;;5056201;28;20917;-79
2024/01/27 13:53:05;;;;;;;11.20;6.93;;;;;;;;;;5057984;28;21171;-80
2024/01/27 13:55:32;;;;;;;16.00;7.57;;;;;;;;;;5057475;28;20453;-80
2024/01/27 13:57:58;;;;;;;15.30;7.20;;;;;;;;;;5053636;28;20501;-79
2024/01/27 14:00:25;;;;;;;14.67;7.00;;;;;;;;;;5060306;28;20518;-81
2024/01/27 14:02:51;;;;;;;14.20;7.90;;;;;;;;;;5051416;28;20462;-80
2024/01/27 14:05:17;;;;;;;10.77;6.33;;;;;;;;;;5044406;28;20479;-80
2024/01/27 14:07:45;;;;;;;11.60;7.00;;;;;;;;;;5064889;28;20480;-80
2024/01/27 14:10:12;;;;;;;11.87;6.97;;;;;;;;;;5065039;28;20491;-80
2024/01/27 14:12:38;;;;;;;12.13;6.57;;;;;;;;;;5058556;28;20518;-80
2024/01/27 14:15:06;;;;;;;9.80;7.03;;;;;;;;;;5061120;28;20491;-80
2024/01/27 14:17:33;;;;;;;16.93;7.27;;;;;;;;;;5052055;28;20508;-80
2024/01/27 14:19:59;;;;;;;14.13;6.60;;;;;;;;;;5055924;28;20529;-79
2024/01/27 14:22:26;;;;;;;8.83;6.60;;;;;;;;;;5054674;28;20453;-79
2024/01/27 14:24:53;;;;;;;12.70;7.57;;;;;;;;;;5056737;28;20460;-80